Time;durP1;ratioP1;P1;durP2;ratioP2;P2;SDS_P1;SDS_P2;PMS_P1;PMS_P2;Temp;Humidity;BMP_temperature;BMP_pressure;BME280_temperature;BME280_humidity;BME280_pressure;Samples;Min_cycle;Max_cycle;Signal;HPM_P1;HPM_P2
2023/06/25 00:01:39;;;;;;;17.70;13.38;;;;;;;;;;5046251;28;20410;-84
2023/06/25 00:04:25;;;;;;;20.55;14.10;;;;;;;;;;5053274;28;20037;-83
2023/06/25 00:07:10;;;;;;;20.52;14.20;;;;;;;;;;5045994;28;20048;-83
2023/06/25 00:10:16;;;;;;;19.93;13.77;;;;;;;;;;5054425;28;20037;-83
2023/06/25 00:13:04;;;;;;;19.13;12.40;;;;;;;;;;5053163;28;20045;-84
2023/06/25 00:15:52;;;;;;;17.38;13.07;;;;;;;;;;5054072;28;20036;-82
2023/06/25 00:18:37;;;;;;;19.23;12.40;;;;;;;;;;5054502;28;20045;-84
2023/06/25 00:21:27;;;;;;;16.92;12.85;;;;;;;;;;5053935;28;20045;-84
2023/06/25 00:24:20;;;;;;;16.63;12.55;;;;;;;;;;5053432;28;20040;-83
2023/06/25 00:27:07;;;;;;;15.93;12.95;;;;;;;;;;5053994;28;20394;-82
2023/06/25 00:29:51;;;;;;;16.23;13.68;;;;;;;;;;5053270;28;20040;-83
2023/06/25 00:32:37;;;;;;;19.55;12.20;;;;;;;;;;5059287;28;20045;-83
2023/06/25 00:35:38;;;;;;;17.00;12.65;;;;;;;;;;5059588;28;20045;-84
2023/06/25 00:38:35;;;;;;;15.95;12.00;;;;;;;;;;5059740;28;20037;-85
2023/06/25 00:41:20;;;;;;;21.75;11.65;;;;;;;;;;5045473;28;20048;-84
2023/06/25 00:44:06;;;;;;;16.02;11.57;;;;;;;;;;5045349;28;20041;-84
2023/06/25 00:47:05;;;;;;;14.02;11.15;;;;;;;;;;5059585;28;20053;-85
2023/06/25 00:50:00;;;;;;;13.65;10.55;;;;;;;;;;5040808;28;20037;-84
2023/06/25 00:52:48;;;;;;;;;;;;;;;;;;5059560;28;20041;-84
2023/06/25 00:55:34;;;;;;;14.45;10.02;;;;;;;;;;5045273;28;19913;-84
2023/06/25 00:58:22;;;;;;;13.45;10.82;;;;;;;;;;5053452;28;20379;-84
2023/06/25 01:01:17;;;;;;;18.23;11.20;;;;;;;;;;5052842;28;20041;-83
2023/06/25 01:04:19;;;;;;;14.27;9.90;;;;;;;;;;5053539;28;20037;-83
2023/06/25 01:07:16;;;;;;;19.83;11.45;;;;;;;;;;5045611;28;20501;-85
2023/06/25 01:10:02;;;;;;;19.23;11.25;;;;;;;;;;5059144;28;20037;-85
2023/06/25 01:12:56;;;;;;;17.35;12.85;;;;;;;;;;5059456;28;20045;-84
2023/06/25 01:15:42;;;;;;;19.55;12.48;;;;;;;;;;5058847;28;20044;-83
2023/06/25 01:18:56;;;;;;;16.23;13.18;;;;;;;;;;5058922;28;20049;-83
2023/06/25 01:22:30;;;;;;;19.38;13.10;;;;;;;;;;5045150;28;20390;-84
2023/06/25 01:33:49;;;;;;;14.93;11.23;;;;;;;;;;5030313;28;20057;-85
2023/06/25 01:36:44;;;;;;;16.80;11.30;;;;;;;;;;5056060;28;20033;-85
2023/06/25 01:39:40;;;;;;;19.95;10.43;;;;;;;;;;5049164;28;20486;-85
2023/06/25 01:42:29;;;;;;;16.55;13.82;;;;;;;;;;5063189;28;20390;-85
2023/06/25 01:45:29;;;;;;;;;;;;;;;;;;;;;
2023/06/25 01:48:23;;;;;;;103.60;68.32;;;;;;;;;;5062497;28;20041;-84
2023/06/25 02:01:02;;;;;;;17.88;13.10;;;;;;;;;;5005222;28;20042;-83
2023/06/25 02:13:04;;;;;;;;;;;;;;;;;;;;;
2023/06/25 02:16:22;;;;;;;11.70;9.52;;;;;;;;;;5076054;28;20044;-83
2023/06/25 02:19:48;;;;;;;;;;;;;;;;;;;;;
2023/06/25 02:24:09;;;;;;;11.93;8.95;;;;;;;;;;5014031;28;19917;-84
2023/06/25 02:28:15;;;;;;;12.10;8.88;;;;;;;;;;4994351;28;20046;-84
2023/06/25 03:36:43;;;;;;;8.65;7.80;;;;;;;;;;5080587;28;20048;-86
2023/06/25 03:39:39;;;;;;;11.63;8.55;;;;;;;;;;5068383;28;20420;-86
2023/06/25 03:42:31;;;;;;;11.38;9.18;;;;;;;;;;5080071;28;20044;-85
2023/06/25 03:45:19;;;;;;;15.55;8.82;;;;;;;;;;5088727;28;20021;-87
2023/06/25 03:48:11;;;;;;;11.63;9.02;;;;;;;;;;5084257;28;20037;-87
2023/06/25 03:50:57;;;;;;;13.93;9.07;;;;;;;;;;5080308;28;20049;-87
2023/06/25 03:53:43;;;;;;;10.98;9.15;;;;;;;;;;5073907;28;20032;-86
2023/06/25 03:56:34;;;;;;;11.88;9.10;;;;;;;;;;5066671;28;20044;-86
2023/06/25 03:59:22;;;;;;;14.15;9.60;;;;;;;;;;5066984;28;20041;-86
2023/06/25 04:02:09;;;;;;;12.77;9.98;;;;;;;;;;5066015;28;20040;-87
2023/06/25 04:05:03;;;;;;;14.77;10.63;;;;;;;;;;5080459;28;20048;-87
2023/06/25 04:07:50;;;;;;;11.10;8.98;;;;;;;;;;5065447;28;20494;-86
2023/06/25 04:10:38;;;;;;;11.18;9.57;;;;;;;;;;5079739;28;20040;-86
2023/06/25 04:13:23;;;;;;;12.57;8.90;;;;;;;;;;5066177;28;20049;-87
2023/06/25 04:16:09;;;;;;;12.30;9.95;;;;;;;;;;5066744;28;20044;-88
2023/06/25 04:18:55;;;;;;;12.68;9.85;;;;;;;;;;5079901;28;20044;-86
2023/06/25 04:56:35;;;;;;;11.45;10.35;;;;;;;;;;5081372;28;20056;-86
2023/06/25 04:59:24;;;;;;;13.20;11.02;;;;;;;;;;5073546;28;20418;-83
2023/06/25 05:33:40;;;;;;;12.63;11.07;;;;;;;;;;5013375;28;20050;-87
2023/06/25 05:36:26;;;;;;;13.32;11.15;;;;;;;;;;5011339;28;20046;-85
2023/06/25 06:54:59;;;;;;;27.13;18.75;;;;;;;;;;5080372;28;20421;-85
2023/06/25 06:57:46;;;;;;;32.28;20.00;;;;;;;;;;5054731;28;20052;-86
2023/06/25 07:00:33;;;;;;;35.50;20.58;;;;;;;;;;5040513;28;20045;-87
2023/06/25 07:03:18;;;;;;;28.70;20.52;;;;;;;;;;5054271;28;20478;-85
2023/06/25 07:06:04;;;;;;;28.65;19.08;;;;;;;;;;5040414;28;20041;-87
2023/06/25 07:08:50;;;;;;;29.10;21.15;;;;;;;;;;5033078;28;20044;-84
2023/06/25 07:11:35;;;;;;;28.20;18.63;;;;;;;;;;5040783;28;20037;-86
2023/06/25 07:14:20;;;;;;;25.02;18.30;;;;;;;;;;5055202;28;20398;-86
2023/06/25 07:17:05;;;;;;;27.00;18.25;;;;;;;;;;5039698;28;20044;-86
2023/06/25 07:19:51;;;;;;;31.08;19.63;;;;;;;;;;5055054;28;20049;-82
2023/06/25 07:22:40;;;;;;;30.17;19.33;;;;;;;;;;5054769;28;20036;-82
2023/06/25 07:25:25;;;;;;;27.15;19.42;;;;;;;;;;5054890;28;20474;-82
2023/06/25 07:28:11;;;;;;;27.73;19.45;;;;;;;;;;5055175;28;20040;-83
2023/06/25 07:30:56;;;;;;;30.08;19.52;;;;;;;;;;5055421;28;20046;-86
2023/06/25 07:33:42;;;;;;;27.02;19.08;;;;;;;;;;5054889;28;20036;-83
2023/06/25 07:36:30;;;;;;;29.17;18.92;;;;;;;;;;5054964;28;20482;-86
2023/06/25 07:39:26;;;;;;;30.38;19.42;;;;;;;;;;5054668;28;20036;-84
2023/06/25 07:42:12;;;;;;;27.73;19.75;;;;;;;;;;5055139;28;20044;-87
2023/06/25 07:44:57;;;;;;;26.65;18.98;;;;;;;;;;5053717;28;20041;-86
2023/06/25 07:47:43;;;;;;;28.73;20.02;;;;;;;;;;5054961;28;20053;-86
2023/06/25 07:50:28;;;;;;;26.42;19.40;;;;;;;;;;5046577;28;20045;-84
2023/06/25 07:53:14;;;;;;;26.88;19.30;;;;;;;;;;5054662;28;20045;-81
2023/06/25 07:55:59;;;;;;;27.58;19.35;;;;;;;;;;5066927;28;20052;-81
2023/06/25 07:58:46;;;;;;;25.05;18.25;;;;;;;;;;5081260;28;20048;-76
2023/06/25 08:01:32;;;;;;;31.90;22.45;;;;;;;;;;5080749;28;20485;-76
2023/06/25 08:04:17;;;;;;;26.55;20.40;;;;;;;;;;5074708;28;20036;-79
2023/06/25 08:07:03;;;;;;;25.02;19.58;;;;;;;;;;5082554;28;20085;-78
2023/06/25 08:09:49;;;;;;;29.08;20.65;;;;;;;;;;5080808;28;20044;-78
2023/06/25 08:12:34;;;;;;;27.75;19.50;;;;;;;;;;5073760;28;20040;-75
2023/06/25 08:15:20;;;;;;;29.55;20.10;;;;;;;;;;5073528;28;20041;-78
2023/06/25 08:18:05;;;;;;;26.65;20.52;;;;;;;;;;5074024;28;20037;-75
2023/06/25 08:20:51;;;;;;;27.27;20.08;;;;;;;;;;5073710;28;20037;-78
2023/06/25 08:23:36;;;;;;;28.98;20.23;;;;;;;;;;5073851;28;20048;-79
2023/06/25 08:26:22;;;;;;;32.60;21.70;;;;;;;;;;5073842;28;20049;-76
2023/06/25 08:29:08;;;;;;;30.90;19.67;;;;;;;;;;5080472;28;20044;-77
2023/06/25 08:31:53;;;;;;;29.30;19.60;;;;;;;;;;5079862;28;20044;-76
2023/06/25 08:34:40;;;;;;;34.22;21.13;;;;;;;;;;5072190;28;20036;-77
2023/06/25 08:37:25;;;;;;;34.80;21.40;;;;;;;;;;5073788;28;20044;-76
2023/06/25 08:40:12;;;;;;;28.75;20.10;;;;;;;;;;5080403;28;20044;-76
2023/06/25 08:42:58;;;;;;;26.63;19.17;;;;;;;;;;5073901;28;20401;-77
2023/06/25 08:45:43;;;;;;;29.75;21.42;;;;;;;;;;5073539;28;20028;-76
2023/06/25 08:48:32;;;;;;;26.55;19.33;;;;;;;;;;5073422;28;20052;-77
2023/06/25 08:51:24;;;;;;;28.13;20.48;;;;;;;;;;5080330;28;20393;-76
2023/06/25 08:54:11;;;;;;;28.70;20.58;;;;;;;;;;5073047;28;20037;-78
2023/06/25 08:56:58;;;;;;;30.92;21.05;;;;;;;;;;5072928;28;20049;-78
2023/06/25 08:59:44;;;;;;;30.15;21.05;;;;;;;;;;5079579;28;20492;-79
2023/06/25 09:02:29;;;;;;;28.65;21.05;;;;;;;;;;5073185;28;20049;-78
2023/06/25 09:05:26;;;;;;;29.10;21.02;;;;;;;;;;5072302;28;20041;-78
2023/06/25 09:08:14;;;;;;;29.20;21.30;;;;;;;;;;5073541;28;20048;-78
2023/06/25 09:11:00;;;;;;;25.33;20.40;;;;;;;;;;5073565;28;20405;-77
2023/06/25 09:13:45;;;;;;;31.52;21.48;;;;;;;;;;5073350;28;20045;-78
2023/06/25 09:16:30;;;;;;;27.90;21.50;;;;;;;;;;5073645;28;20037;-82
2023/06/25 09:19:21;;;;;;;27.90;20.50;;;;;;;;;;5080979;28;20048;-77
2023/06/25 09:22:06;;;;;;;28.08;20.35;;;;;;;;;;5073288;28;20041;-78
2023/06/25 09:24:51;;;;;;;27.38;21.10;;;;;;;;;;5079566;28;20401;-78
2023/06/25 09:27:37;;;;;;;26.55;21.20;;;;;;;;;;5073874;28;20477;-79
2023/06/25 09:30:23;;;;;;;32.65;21.15;;;;;;;;;;5080281;28;20389;-78
2023/06/25 09:33:10;;;;;;;28.33;21.35;;;;;;;;;;5073318;28;20048;-78
2023/06/25 09:36:00;;;;;;;28.67;20.92;;;;;;;;;;5071790;28;20449;-78
2023/06/25 09:38:45;;;;;;;30.20;21.65;;;;;;;;;;5073157;28;20052;-77
2023/06/25 09:41:34;;;;;;;27.55;21.70;;;;;;;;;;5072219;28;20044;-76
2023/06/25 09:44:21;;;;;;;27.25;21.92;;;;;;;;;;5080032;28;20342;-77
2023/06/25 09:47:10;;;;;;;31.50;21.55;;;;;;;;;;5072120;28;20045;-77
2023/06/25 09:49:56;;;;;;;25.20;20.75;;;;;;;;;;5076635;28;20045;-76
2023/06/25 09:52:46;;;;;;;29.17;21.95;;;;;;;;;;5077133;28;20040;-76
2023/06/25 09:55:34;;;;;;;31.27;22.95;;;;;;;;;;5076314;28;20056;-79
2023/06/25 09:58:21;;;;;;;29.42;21.92;;;;;;;;;;5083459;28;20040;-79
2023/06/25 10:01:07;;;;;;;30.33;22.35;;;;;;;;;;5082417;28;20045;-80
2023/06/25 10:03:54;;;;;;;30.40;22.02;;;;;;;;;;5083652;28;20041;-79
2023/06/25 10:06:39;;;;;;;31.83;22.02;;;;;;;;;;5077209;28;20052;-79
2023/06/25 10:09:24;;;;;;;25.58;19.60;;;;;;;;;;5083481;28;20048;-79
2023/06/25 10:12:10;;;;;;;31.30;20.90;;;;;;;;;;5083483;28;20434;-79
2023/06/25 10:14:56;;;;;;;29.85;21.20;;;;;;;;;;5076204;28;20048;-79
2023/06/25 10:17:56;;;;;;;33.88;24.00;;;;;;;;;;5076410;28;20056;-79
2023/06/25 10:20:44;;;;;;;30.65;23.00;;;;;;;;;;5076854;28;20474;-79
2023/06/25 10:23:30;;;;;;;32.60;24.15;;;;;;;;;;5083548;28;20052;-79
2023/06/25 10:26:15;;;;;;;29.85;23.80;;;;;;;;;;5082581;28;20040;-80
2023/06/25 10:29:05;;;;;;;30.88;22.80;;;;;;;;;;5082453;28;20048;-77
2023/06/25 10:31:50;;;;;;;30.08;23.52;;;;;;;;;;5083087;28;20083;-76
2023/06/25 10:34:39;;;;;;;27.13;20.35;;;;;;;;;;5075794;28;20485;-75
2023/06/25 10:37:29;;;;;;;26.70;21.52;;;;;;;;;;5075740;28;20040;-76
2023/06/25 10:40:15;;;;;;;26.25;19.90;;;;;;;;;;5076207;28;20481;-77
2023/06/25 10:43:01;;;;;;;22.15;17.10;;;;;;;;;;5081731;28;20041;-77
2023/06/25 10:45:51;;;;;;;22.08;18.10;;;;;;;;;;5076528;28;20033;-76
2023/06/25 10:48:45;;;;;;;20.60;17.38;;;;;;;;;;5075071;28;20044;-75
2023/06/25 10:51:33;;;;;;;20.23;17.60;;;;;;;;;;5075688;28;20482;-75
2023/06/25 10:54:21;;;;;;;23.80;16.10;;;;;;;;;;5075813;28;20037;-79
2023/06/25 10:57:11;;;;;;;23.60;17.23;;;;;;;;;;5075539;28;20048;-79
2023/06/25 10:59:58;;;;;;;19.73;16.65;;;;;;;;;;5075788;28;20048;-78
2023/06/25 11:02:43;;;;;;;18.10;16.02;;;;;;;;;;5082225;28;20401;-80
2023/06/25 11:05:35;;;;;;;18.55;15.77;;;;;;;;;;5075782;28;20041;-81
2023/06/25 11:08:24;;;;;;;17.77;15.85;;;;;;;;;;5082464;28;20049;-78
2023/06/25 11:11:10;;;;;;;18.90;16.85;;;;;;;;;;5075467;28;20041;-76
2023/06/25 11:13:55;;;;;;;18.17;16.10;;;;;;;;;;5075642;28;20393;-78
2023/06/25 11:16:47;;;;;;;21.88;17.13;;;;;;;;;;5082104;28;20040;-79
2023/06/25 11:19:32;;;;;;;21.88;17.17;;;;;;;;;;5081974;28;20056;-79
2023/06/25 11:22:19;;;;;;;19.70;17.60;;;;;;;;;;5082065;28;20048;-79
2023/06/25 11:25:06;;;;;;;21.67;17.00;;;;;;;;;;5075210;28;20044;-79
2023/06/25 11:28:04;;;;;;;19.92;17.40;;;;;;;;;;5081630;28;20037;-80
2023/06/25 11:30:57;;;;;;;21.67;17.77;;;;;;;;;;5075692;28;20044;-79
2023/06/25 11:33:52;;;;;;;19.27;16.98;;;;;;;;;;5081647;28;20036;-80
2023/06/25 11:36:38;;;;;;;22.00;17.38;;;;;;;;;;5080977;28;20056;-80
2023/06/25 11:39:23;;;;;;;21.52;18.65;;;;;;;;;;5073857;28;20041;-80
2023/06/25 11:42:14;;;;;;;19.08;17.13;;;;;;;;;;5075276;28;20048;-79
2023/06/25 11:45:07;;;;;;;26.13;18.92;;;;;;;;;;5081766;28;20045;-81
2023/06/25 11:47:55;;;;;;;18.60;16.33;;;;;;;;;;5081611;28;20481;-80
2023/06/25 11:50:42;;;;;;;19.85;17.75;;;;;;;;;;5073805;28;20040;-77
2023/06/25 11:53:28;;;;;;;23.00;18.02;;;;;;;;;;5081095;28;20052;-77
2023/06/25 11:56:13;;;;;;;23.08;19.40;;;;;;;;;;5077286;28;20045;-77
2023/06/25 11:58:59;;;;;;;20.55;17.08;;;;;;;;;;5081222;28;20401;-77
2023/06/25 12:01:44;;;;;;;19.52;17.42;;;;;;;;;;5080947;28;20040;-76
2023/06/25 12:04:30;;;;;;;19.92;17.83;;;;;;;;;;5080937;28;20052;-76
2023/06/25 12:07:16;;;;;;;23.92;17.75;;;;;;;;;;5074745;28;20473;-79
2023/06/25 12:10:01;;;;;;;23.58;17.38;;;;;;;;;;5080793;28;20482;-80
2023/06/25 12:12:47;;;;;;;21.70;19.33;;;;;;;;;;5080848;28;20413;-78
2023/06/25 12:15:33;;;;;;;21.10;17.38;;;;;;;;;;5073924;28;20036;-77
2023/06/25 12:18:18;;;;;;;21.08;18.33;;;;;;;;;;5074164;28;20044;-79
2023/06/25 12:21:04;;;;;;;25.75;20.83;;;;;;;;;;5074155;28;20489;-78
2023/06/25 12:23:49;;;;;;;20.42;18.05;;;;;;;;;;5074009;28;20037;-78
2023/06/25 12:26:35;;;;;;;20.85;18.58;;;;;;;;;;5081106;28;20044;-79
2023/06/25 12:29:21;;;;;;;20.75;18.60;;;;;;;;;;5073460;28;20036;-76
2023/06/25 12:32:06;;;;;;;20.70;17.80;;;;;;;;;;5081111;28;20041;-79
2023/06/25 12:34:52;;;;;;;21.80;17.58;;;;;;;;;;5080419;28;20482;-79
2023/06/25 12:37:44;;;;;;;20.83;17.02;;;;;;;;;;5074220;28;20052;-81
2023/06/25 12:40:31;;;;;;;22.17;18.23;;;;;;;;;;5080220;28;20401;-81
2023/06/25 12:43:17;;;;;;;20.77;17.98;;;;;;;;;;5074129;28;20045;-78
2023/06/25 12:46:04;;;;;;;20.17;17.88;;;;;;;;;;5074396;28;20033;-83
2023/06/25 12:48:49;;;;;;;21.00;17.58;;;;;;;;;;5073833;28;20040;-78
2023/06/25 12:51:35;;;;;;;20.58;18.40;;;;;;;;;;5074005;28;20045;-79
2023/06/25 12:54:21;;;;;;;21.33;19.13;;;;;;;;;;5073477;28;20044;-80
2023/06/25 12:57:06;;;;;;;21.88;17.27;;;;;;;;;;5073598;28;20048;-82
2023/06/25 12:59:52;;;;;;;24.23;19.23;;;;;;;;;;5073660;28;20041;-76
2023/06/25 13:02:39;;;;;;;21.52;18.30;;;;;;;;;;5073676;28;20048;-80
2023/06/25 13:05:24;;;;;;;20.85;18.05;;;;;;;;;;5073588;28;20040;-77
2023/06/25 13:08:10;;;;;;;23.00;20.13;;;;;;;;;;5080497;28;20048;-77
2023/06/25 13:10:56;;;;;;;23.60;20.50;;;;;;;;;;5079174;28;20044;-78
2023/06/25 13:13:42;;;;;;;29.52;23.27;;;;;;;;;;5073421;28;20040;-78
2023/06/25 13:16:47;;;;;;;28.60;24.35;;;;;;;;;;5080429;28;20040;-78
2023/06/25 13:19:32;;;;;;;27.60;22.58;;;;;;;;;;5073269;28;20045;-77
2023/06/25 13:22:19;;;;;;;26.75;22.38;;;;;;;;;;5078698;28;20044;-82
2023/06/25 13:25:04;;;;;;;25.23;20.35;;;;;;;;;;5078649;28;20045;-76
2023/06/25 13:27:55;;;;;;;22.77;18.75;;;;;;;;;;5077273;28;20501;-77
2023/06/25 13:30:41;;;;;;;23.75;18.70;;;;;;;;;;5083446;28;20485;-77
2023/06/25 13:33:26;;;;;;;18.17;13.93;;;;;;;;;;5077212;28;20041;-81
2023/06/25 13:36:13;;;;;;;23.65;18.08;;;;;;;;;;5078600;28;20044;-82
2023/06/25 13:39:01;;;;;;;17.60;14.73;;;;;;;;;;5078949;28;20040;-82
2023/06/25 13:41:59;;;;;;;15.77;12.40;;;;;;;;;;5079821;28;20140;-81
2023/06/25 13:44:50;;;;;;;15.65;12.93;;;;;;;;;;5084656;28;20385;-82
2023/06/25 13:47:36;;;;;;;23.90;17.70;;;;;;;;;;5078931;28;20041;-81
2023/06/25 13:50:22;;;;;;;12.80;11.27;;;;;;;;;;5091294;28;20490;-82
2023/06/25 13:53:10;;;;;;;15.38;11.57;;;;;;;;;;5083953;28;20048;-83
2023/06/25 13:55:56;;;;;;;14.13;10.32;;;;;;;;;;5081085;28;20052;-82
2023/06/25 13:58:42;;;;;;;10.07;8.48;;;;;;;;;;5084825;28;20045;-81
2023/06/25 14:01:27;;;;;;;12.18;9.68;;;;;;;;;;5077416;28;20052;-80
2023/06/25 14:04:13;;;;;;;9.90;8.85;;;;;;;;;;5077680;28;20045;-82
2023/06/25 14:06:58;;;;;;;13.07;9.70;;;;;;;;;;5092733;28;20048;-82
2023/06/25 14:09:43;;;;;;;11.68;8.45;;;;;;;;;;5093650;28;20048;-80
2023/06/25 14:12:29;;;;;;;12.98;9.32;;;;;;;;;;5093758;28;20040;-81
2023/06/25 14:15:15;;;;;;;13.02;8.77;;;;;;;;;;5079216;28;20045;-81
2023/06/25 14:18:00;;;;;;;11.98;8.90;;;;;;;;;;5085040;28;20049;-80
2023/06/25 14:20:46;;;;;;;10.05;7.78;;;;;;;;;;5097455;28;20041;-81
2023/06/25 14:26:55;;;;;;;9.38;6.55;;;;;;;;;;5077567;28;20048;-85
2023/06/25 14:29:41;;;;;;;10.77;7.70;;;;;;;;;;5078342;28;20049;-84
2023/06/25 14:32:26;;;;;;;10.93;6.22;;;;;;;;;;5077431;28;20040;-83
2023/06/25 14:35:12;;;;;;;9.52;6.45;;;;;;;;;;5075733;28;20048;-82
2023/06/25 14:37:57;;;;;;;10.02;6.82;;;;;;;;;;5076288;28;20064;-83
2023/06/25 14:40:43;;;;;;;8.23;6.10;;;;;;;;;;5083660;28;20044;-84
2023/06/25 14:43:28;;;;;;;7.13;5.30;;;;;;;;;;5079981;28;20265;-84
2023/06/25 14:46:15;;;;;;;8.32;5.80;;;;;;;;;;5081615;28;20041;-79
2023/06/25 14:49:01;;;;;;;9.68;5.80;;;;;;;;;;5075605;28;20048;-79
2023/06/25 14:51:46;;;;;;;8.45;5.70;;;;;;;;;;5067669;28;20037;-78
2023/06/25 14:54:32;;;;;;;8.57;5.50;;;;;;;;;;5076158;28;20044;-79
2023/06/25 14:57:17;;;;;;;10.63;6.30;;;;;;;;;;5075508;28;20505;-78
2023/06/25 15:00:03;;;;;;;11.15;5.55;;;;;;;;;;5075621;28;20036;-79
2023/06/25 15:02:48;;;;;;;8.93;5.85;;;;;;;;;;5074660;28;20064;-79
2023/06/25 15:05:34;;;;;;;12.40;5.88;;;;;;;;;;5073490;28;20520;-79
2023/06/25 15:08:20;;;;;;;8.30;5.15;;;;;;;;;;5080129;28;20041;-79
2023/06/25 15:11:05;;;;;;;10.77;4.95;;;;;;;;;;5073400;28;20036;-80
2023/06/25 15:13:54;;;;;;;7.43;4.63;;;;;;;;;;5073518;28;20044;-80
2023/06/25 15:16:40;;;;;;;8.25;5.65;;;;;;;;;;5073178;28;20036;-80
2023/06/25 15:19:25;;;;;;;7.25;5.05;;;;;;;;;;5075509;28;20060;-77
2023/06/25 15:22:10;;;;;;;8.43;4.75;;;;;;;;;;5075247;28;20036;-77
2023/06/25 15:24:55;;;;;;;9.38;4.75;;;;;;;;;;5075022;28;20381;-79
2023/06/25 15:27:41;;;;;;;7.82;4.70;;;;;;;;;;5075436;28;20048;-79
2023/06/25 15:30:26;;;;;;;6.97;4.45;;;;;;;;;;5081109;28;20040;-79
2023/06/25 15:33:12;;;;;;;7.05;4.07;;;;;;;;;;5075124;28;20048;-79
2023/06/25 15:35:57;;;;;;;5.40;4.05;;;;;;;;;;5075117;28;20044;-79
2023/06/25 15:38:42;;;;;;;6.50;4.47;;;;;;;;;;5080931;28;20478;-79
2023/06/25 15:41:28;;;;;;;9.48;5.53;;;;;;;;;;5075573;28;20041;-77
2023/06/25 15:44:13;;;;;;;9.15;5.40;;;;;;;;;;5075214;28;20044;-77
2023/06/25 15:46:59;;;;;;;7.03;3.95;;;;;;;;;;5074279;28;20044;-80
2023/06/25 15:49:48;;;;;;;5.97;3.60;;;;;;;;;;5074584;28;20044;-78
2023/06/25 15:52:33;;;;;;;4.95;3.60;;;;;;;;;;5081480;28;20049;-79
2023/06/25 15:55:23;;;;;;;8.75;3.63;;;;;;;;;;5080746;28;20041;-76
2023/06/25 15:58:09;;;;;;;4.90;3.30;;;;;;;;;;5074631;28;20481;-78
2023/06/25 16:00:55;;;;;;;8.10;3.63;;;;;;;;;;5074140;28;20040;-78
2023/06/25 16:03:41;;;;;;;7.40;3.75;;;;;;;;;;5074227;28;20052;-77
2023/06/25 16:06:26;;;;;;;5.15;3.35;;;;;;;;;;5074495;28;20485;-80
2023/06/25 16:09:11;;;;;;;4.80;3.63;;;;;;;;;;5074371;28;20052;-78
2023/06/25 16:11:57;;;;;;;6.65;4.13;;;;;;;;;;5080835;28;20044;-75
2023/06/25 16:14:42;;;;;;;7.57;3.95;;;;;;;;;;5073735;28;20048;-79
2023/06/25 16:17:28;;;;;;;5.00;4.00;;;;;;;;;;5073979;28;20048;-78
2023/06/25 16:20:14;;;;;;;6.95;4.32;;;;;;;;;;5074021;28;20044;-76
2023/06/25 16:23:00;;;;;;;4.85;3.78;;;;;;;;;;5080597;28;20044;-78
2023/06/25 16:25:46;;;;;;;13.65;6.25;;;;;;;;;;5073587;28;20044;-78
2023/06/25 16:28:30;;;;;;;9.38;5.47;;;;;;;;;;5073858;28;20066;-79
2023/06/25 16:31:16;;;;;;;14.95;7.30;;;;;;;;;;5080879;28;20044;-78
2023/06/25 16:34:02;;;;;;;17.80;8.93;;;;;;;;;;5073761;28;20041;-76
2023/06/25 16:36:48;;;;;;;17.27;7.80;;;;;;;;;;5080272;28;20037;-78
2023/06/25 16:39:33;;;;;;;14.55;6.20;;;;;;;;;;5073969;28;20056;-76
2023/06/25 16:42:18;;;;;;;11.25;5.93;;;;;;;;;;5073814;28;20048;-76
2023/06/25 16:45:04;;;;;;;7.72;5.30;;;;;;;;;;5073334;28;20040;-76
2023/06/25 16:47:50;;;;;;;8.30;5.30;;;;;;;;;;5073805;28;20044;-78
2023/06/25 16:50:35;;;;;;;8.00;5.18;;;;;;;;;;5073963;28;20037;-78
2023/06/25 16:53:21;;;;;;;7.25;5.28;;;;;;;;;;5073714;28;20048;-78
2023/06/25 16:56:06;;;;;;;8.88;5.78;;;;;;;;;;5072828;28;20053;-79
2023/06/25 16:58:52;;;;;;;9.65;5.50;;;;;;;;;;5073707;28;20049;-80
2023/06/25 17:01:38;;;;;;;8.30;5.95;;;;;;;;;;5073259;28;20041;-77
2023/06/25 17:04:23;;;;;;;9.98;7.13;;;;;;;;;;5073568;28;20044;-76
2023/06/25 17:07:09;;;;;;;10.05;6.70;;;;;;;;;;5073544;28;20044;-78
2023/06/25 17:09:54;;;;;;;12.25;6.47;;;;;;;;;;5073190;28;20044;-78
2023/06/25 17:12:40;;;;;;;7.93;6.63;;;;;;;;;;5073276;28;20044;-76
2023/06/25 17:15:25;;;;;;;10.02;5.88;;;;;;;;;;5080084;28;20486;-76
2023/06/25 17:18:12;;;;;;;8.00;6.32;;;;;;;;;;5073186;28;20036;-78
2023/06/25 17:20:58;;;;;;;9.20;6.30;;;;;;;;;;5073268;28;20044;-78
2023/06/25 17:23:43;;;;;;;9.52;6.32;;;;;;;;;;5073311;28;20048;-76
2023/06/25 17:26:29;;;;;;;8.55;6.07;;;;;;;;;;5073399;28;20049;-78
2023/06/25 17:29:14;;;;;;;8.23;6.35;;;;;;;;;;5073713;28;20041;-76
2023/06/25 17:32:00;;;;;;;8.35;6.50;;;;;;;;;;5072830;28;20056;-78
2023/06/25 17:34:45;;;;;;;9.82;5.80;;;;;;;;;;5079134;28;20037;-76
2023/06/25 17:37:30;;;;;;;7.20;5.95;;;;;;;;;;5079696;28;20335;-78
2023/06/25 17:40:16;;;;;;;9.18;5.93;;;;;;;;;;5080066;28;20044;-81
2023/06/25 17:43:01;;;;;;;9.07;6.13;;;;;;;;;;5073367;28;20053;-83
2023/06/25 17:45:47;;;;;;;9.10;7.05;;;;;;;;;;5081624;28;20049;-82
2023/06/25 17:48:32;;;;;;;9.15;6.60;;;;;;;;;;5073666;28;20537;-81
2023/06/25 17:51:18;;;;;;;15.73;8.45;;;;;;;;;;5079899;28;20390;-82
2023/06/25 17:54:04;;;;;;;12.05;8.18;;;;;;;;;;5078105;28;20036;-82
2023/06/25 17:56:50;;;;;;;11.23;8.65;;;;;;;;;;5073301;28;20401;-83
2023/06/25 17:59:36;;;;;;;15.00;9.55;;;;;;;;;;5070775;28;20044;-77
2023/06/25 18:02:21;;;;;;;10.07;7.85;;;;;;;;;;5070606;28;20040;-80
2023/06/25 18:05:08;;;;;;;12.25;6.88;;;;;;;;;;5070776;28;20060;-79
2023/06/25 18:08:00;;;;;;;13.68;6.10;;;;;;;;;;5071111;28;20040;-78
2023/06/25 18:10:49;;;;;;;11.60;5.32;;;;;;;;;;5074466;28;20040;-77
2023/06/25 18:13:35;;;;;;;15.15;6.00;;;;;;;;;;5074129;28;20056;-76
2023/06/25 18:16:24;;;;;;;10.55;5.82;;;;;;;;;;5074177;28;20048;-77
2023/06/25 18:19:10;;;;;;;7.72;6.40;;;;;;;;;;5072982;28;20048;-77
2023/06/25 18:21:55;;;;;;;8.07;6.40;;;;;;;;;;5080497;28;20052;-77
2023/06/25 18:24:41;;;;;;;8.48;6.68;;;;;;;;;;5074654;28;20393;-80
2023/06/25 18:27:27;;;;;;;10.85;6.88;;;;;;;;;;5074298;28;20037;-80
2023/06/25 18:30:22;;;;;;;12.65;7.90;;;;;;;;;;5081301;28;20036;-79
2023/06/25 18:33:11;;;;;;;12.20;7.00;;;;;;;;;;5072843;28;20060;-78
2023/06/25 18:35:56;;;;;;;14.88;6.03;;;;;;;;;;5073536;28;20049;-79
2023/06/25 18:38:42;;;;;;;8.25;5.95;;;;;;;;;;5078608;28;20044;-84
2023/06/25 18:41:27;;;;;;;10.30;6.55;;;;;;;;;;5072486;28;20418;-83
2023/06/25 18:44:14;;;;;;;10.95;6.72;;;;;;;;;;5074106;28;20482;-85
2023/06/25 18:47:32;;;;;;;13.50;7.60;;;;;;;;;;5075181;28;20045;-84
2023/06/25 18:50:22;;;;;;;13.23;7.13;;;;;;;;;;5067632;28;20044;-85
2023/06/25 18:53:08;;;;;;;13.90;7.25;;;;;;;;;;5073322;28;20045;-84
2023/06/25 18:55:55;;;;;;;10.02;6.93;;;;;;;;;;5072185;28;20085;-84
2023/06/25 18:58:42;;;;;;;14.85;7.63;;;;;;;;;;5080435;28;20048;-85
2023/06/25 19:01:28;;;;;;;13.00;6.97;;;;;;;;;;5073682;28;20048;-85
2023/06/25 19:04:13;;;;;;;13.73;6.85;;;;;;;;;;5073338;28;20048;-85
2023/06/25 19:06:59;;;;;;;12.93;7.20;;;;;;;;;;5073107;28;20041;-85
2023/06/25 19:09:44;;;;;;;12.80;6.90;;;;;;;;;;5071917;28;20041;-85
2023/06/25 19:12:31;;;;;;;9.93;6.60;;;;;;;;;;5073365;28;20048;-84
2023/06/25 19:15:17;;;;;;;10.93;6.47;;;;;;;;;;5073540;28;20045;-85
2023/06/25 19:18:02;;;;;;;10.70;7.05;;;;;;;;;;5074594;28;20044;-84
2023/06/25 19:20:48;;;;;;;10.90;6.40;;;;;;;;;;5088846;28;20489;-83
2023/06/25 19:23:33;;;;;;;11.85;6.80;;;;;;;;;;5084320;28;20040;-83
2023/06/25 19:26:34;;;;;;;10.30;6.65;;;;;;;;;;5089270;28;20139;-83
2023/06/25 19:29:22;;;;;;;11.35;7.82;;;;;;;;;;5082200;28;20036;-84
2023/06/25 19:32:09;;;;;;;12.13;7.78;;;;;;;;;;5079124;28;20048;-84
2023/06/25 19:34:55;;;;;;;15.02;7.55;;;;;;;;;;5077219;28;20044;-86
2023/06/25 19:37:44;;;;;;;13.00;8.27;;;;;;;;;;5075453;28;20390;-86
2023/06/25 19:40:30;;;;;;;16.10;8.75;;;;;;;;;;5077988;28;20044;-82
2023/06/25 19:43:15;;;;;;;12.35;7.78;;;;;;;;;;5084534;28;20409;-86
2023/06/25 19:46:03;;;;;;;13.95;7.93;;;;;;;;;;5082504;28;20044;-86
2023/06/25 19:48:49;;;;;;;11.35;7.57;;;;;;;;;;5074613;28;20481;-84
2023/06/25 19:51:37;;;;;;;14.95;7.93;;;;;;;;;;5076438;28;20037;-86
2023/06/25 19:54:25;;;;;;;11.82;7.40;;;;;;;;;;5082670;28;20045;-87
2023/06/25 19:57:12;;;;;;;15.50;7.90;;;;;;;;;;5081495;28;20425;-84
2023/06/25 19:59:56;;;;;;;16.10;8.00;;;;;;;;;;5075489;28;20040;-86
2023/06/25 20:02:41;;;;;;;15.50;8.25;;;;;;;;;;5078579;28;20048;-86
2023/06/25 20:05:27;;;;;;;11.05;8.18;;;;;;;;;;5078880;28;20048;-85
2023/06/25 20:08:14;;;;;;;13.05;8.20;;;;;;;;;;5075686;28;20044;-85
2023/06/25 20:11:00;;;;;;;15.95;7.25;;;;;;;;;;5066240;28;20052;-85
2023/06/25 20:13:46;;;;;;;15.95;7.85;;;;;;;;;;5074734;28;20048;-84
2023/06/25 20:16:31;;;;;;;12.48;7.82;;;;;;;;;;5074625;28;20040;-85
2023/06/25 20:19:17;;;;;;;11.55;7.97;;;;;;;;;;5074097;28;20040;-84
2023/06/25 20:22:03;;;;;;;12.60;7.65;;;;;;;;;;5074609;28;20044;-86
2023/06/25 20:24:52;;;;;;;10.27;7.57;;;;;;;;;;5074865;28;20405;-87
2023/06/25 20:27:57;;;;;;;12.77;7.43;;;;;;;;;;5075464;28;20040;-86
2023/06/25 20:30:42;;;;;;;10.77;7.32;;;;;;;;;;5073831;28;20048;-85